sensor_id;sensor_type;location;lat;lon;timestamp;pressure;altitude;pressure_sealevel;temperature;humidity
25526;BME280;13424;48.424;11.258;2023-03-14T00:02:09;94127.25;;;13.62;80.82
25526;BME280;13424;48.424;11.258;2023-03-14T00:04:35;94129.63;;;13.64;80.69
25526;BME280;13424;48.424;11.258;2023-03-14T00:07:02;94117.06;;;13.78;79.95
25526;BME280;13424;48.424;11.258;2023-03-14T00:09:27;94110.63;;;13.79;79.99
25526;BME280;13424;48.424;11.258;2023-03-14T00:11:55;94106.41;;;13.59;80.55
25526;BME280;13424;48.424;11.258;2023-03-14T00:14:21;94120.63;;;13.41;81.47
25526;BME280;13424;48.424;11.258;2023-03-14T00:16:47;94132.66;;;13.76;79.50
25526;BME280;13424;48.424;11.258;2023-03-14T00:19:13;94143.06;;;13.78;79.65
25526;BME280;13424;48.424;11.258;2023-03-14T00:21:38;94141.75;;;14.08;78.69
25526;BME280;13424;48.424;11.258;2023-03-14T00:24:04;94151.53;;;13.85;79.14
25526;BME280;13424;48.424;11.258;2023-03-14T00:26:31;94150.38;;;14.18;77.74
25526;BME280;13424;48.424;11.258;2023-03-14T00:28:57;94149.16;;;13.97;78.38
25526;BME280;13424;48.424;11.258;2023-03-14T00:31:23;94142.59;;;13.57;79.69
25526;BME280;13424;48.424;11.258;2023-03-14T00:33:51;94145.94;;;13.67;79.00
25526;BME280;13424;48.424;11.258;2023-03-14T00:36:17;94143.97;;;13.22;80.27
25526;BME280;13424;48.424;11.258;2023-03-14T00:38:46;94132.09;;;13.28;79.34
25526;BME280;13424;48.424;11.258;2023-03-14T00:41:16;94142.41;;;13.16;79.27
25526;BME280;13424;48.424;11.258;2023-03-14T00:43:43;94139.03;;;12.91;79.63
25526;BME280;13424;48.424;11.258;2023-03-14T00:46:09;94133.59;;;12.77;79.77
25526;BME280;13424;48.424;11.258;2023-03-14T00:48:35;94133.44;;;13.06;78.86
25526;BME280;13424;48.424;11.258;2023-03-14T00:51:03;94133.75;;;13.05;78.55
25526;BME280;13424;48.424;11.258;2023-03-14T00:53:29;94148.13;;;12.90;79.23
25526;BME280;13424;48.424;11.258;2023-03-14T00:55:55;94148.69;;;12.87;79.19
25526;BME280;13424;48.424;11.258;2023-03-14T00:58:21;94141.69;;;13.10;78.59
25526;BME280;13424;48.424;11.258;2023-03-14T01:00:46;94151.91;;;12.89;78.95
25526;BME280;13424;48.424;11.258;2023-03-14T01:03:13;94151.91;;;12.89;79.42
25526;BME280;13424;48.424;11.258;2023-03-14T01:05:40;94162.31;;;12.72;80.47
25526;BME280;13424;48.424;11.258;2023-03-14T01:08:06;94159.63;;;12.72;80.26
25526;BME280;13424;48.424;11.258;2023-03-14T01:10:34;94165.03;;;12.67;80.79
25526;BME280;13424;48.424;11.258;2023-03-14T01:13:04;94167.66;;;12.72;80.59
25526;BME280;13424;48.424;11.258;2023-03-14T01:15:37;94164.00;;;12.15;82.36
25526;BME280;13424;48.424;11.258;2023-03-14T01:18:04;94161.16;;;12.30;81.86
25526;BME280;13424;48.424;11.258;2023-03-14T01:20:37;94170.78;;;11.78;84.26
25526;BME280;13424;48.424;11.258;2023-03-14T01:23:02;94179.28;;;11.85;83.80
25526;BME280;13424;48.424;11.258;2023-03-14T01:25:41;94180.03;;;12.15;82.64
25526;BME280;13424;48.424;11.258;2023-03-14T01:28:07;94181.34;;;11.93;83.90
25526;BME280;13424;48.424;11.258;2023-03-14T01:30:34;94180.66;;;12.07;83.09
25526;BME280;13424;48.424;11.258;2023-03-14T01:33:00;94182.97;;;11.89;83.69
25526;BME280;13424;48.424;11.258;2023-03-14T01:35:25;94182.00;;;11.80;83.94
25526;BME280;13424;48.424;11.258;2023-03-14T01:37:51;94186.06;;;12.01;83.82
25526;BME280;13424;48.424;11.258;2023-03-14T01:40:21;94173.97;;;11.80;84.65
25526;BME280;13424;48.424;11.258;2023-03-14T01:42:57;94183.28;;;11.83;84.90
25526;BME280;13424;48.424;11.258;2023-03-14T01:48:25;94170.91;;;11.92;84.73
25526;BME280;13424;48.424;11.258;2023-03-14T01:50:51;94160.88;;;11.44;86.15
25526;BME280;13424;48.424;11.258;2023-03-14T01:53:17;94155.47;;;11.89;84.91
25526;BME280;13424;48.424;11.258;2023-03-14T01:55:48;94150.56;;;11.38;85.94
25526;BME280;13424;48.424;11.258;2023-03-14T01:58:15;94137.59;;;11.55;85.90
25526;BME280;13424;48.424;11.258;2023-03-14T02:00:42;94126.84;;;11.31;86.88
25526;BME280;13424;48.424;11.258;2023-03-14T02:03:12;94099.88;;;11.33;86.66
25526;BME280;13424;48.424;11.258;2023-03-14T02:05:41;94088.25;;;11.48;85.48
25526;BME280;13424;48.424;11.258;2023-03-14T02:08:14;94054.88;;;11.74;84.92
25526;BME280;13424;48.424;11.258;2023-03-14T02:10:48;94028.59;;;11.86;84.47
25526;BME280;13424;48.424;11.258;2023-03-14T02:13:18;94010.28;;;11.74;84.73
25526;BME280;13424;48.424;11.258;2023-03-14T02:15:51;93997.31;;;11.63;84.92
25526;BME280;13424;48.424;11.258;2023-03-14T02:18:36;93984.50;;;11.12;87.86
25526;BME280;13424;48.424;11.258;2023-03-14T02:24:27;93939.59;;;11.19;87.79
25526;BME280;13424;48.424;11.258;2023-03-14T02:30:30;93975.84;;;11.73;85.43
25526;BME280;13424;48.424;11.258;2023-03-14T02:33:02;94005.22;;;11.73;84.38
25526;BME280;13424;48.424;11.258;2023-03-14T02:35:50;94008.47;;;11.94;83.90
25526;BME280;13424;48.424;11.258;2023-03-14T02:41:18;94005.88;;;11.60;85.03
25526;BME280;13424;48.424;11.258;2023-03-14T02:43:51;94006.75;;;11.79;83.91
25526;BME280;13424;48.424;11.258;2023-03-14T02:46:20;94016.63;;;12.26;82.17
25526;BME280;13424;48.424;11.258;2023-03-14T02:49:10;94019.94;;;12.18;81.91
25526;BME280;13424;48.424;11.258;2023-03-14T02:51:37;94013.25;;;11.97;82.15
25526;BME280;13424;48.424;11.258;2023-03-14T02:54:06;94009.16;;;12.05;82.24
25526;BME280;13424;48.424;11.258;2023-03-14T02:56:32;94017.97;;;11.52;83.96
25526;BME280;13424;48.424;11.258;2023-03-14T02:59:04;94007.69;;;11.93;82.41
25526;BME280;13424;48.424;11.258;2023-03-14T03:01:52;94003.53;;;11.82;82.44
25526;BME280;13424;48.424;11.258;2023-03-14T03:04:18;94002.34;;;11.69;82.70
25526;BME280;13424;48.424;11.258;2023-03-14T03:06:45;94002.22;;;11.80;82.28
25526;BME280;13424;48.424;11.258;2023-03-14T03:09:12;93994.81;;;11.48;82.70
25526;BME280;13424;48.424;11.258;2023-03-14T03:11:37;94001.97;;;11.76;82.05
25526;BME280;13424;48.424;11.258;2023-03-14T03:14:05;94001.13;;;11.57;82.99
25526;BME280;13424;48.424;11.258;2023-03-14T03:16:31;93999.28;;;11.52;82.84
25526;BME280;13424;48.424;11.258;2023-03-14T03:18:56;93998.50;;;11.52;82.86
25526;BME280;13424;48.424;11.258;2023-03-14T03:21:22;93991.19;;;11.38;83.09
25526;BME280;13424;48.424;11.258;2023-03-14T03:23:49;93983.44;;;11.37;83.07
25526;BME280;13424;48.424;11.258;2023-03-14T03:26:16;93983.53;;;11.56;82.57
25526;BME280;13424;48.424;11.258;2023-03-14T03:28:42;93987.78;;;11.57;82.64
25526;BME280;13424;48.424;11.258;2023-03-14T03:31:10;93989.34;;;11.34;82.96
25526;BME280;13424;48.424;11.258;2023-03-14T03:33:38;93986.75;;;11.53;82.48
25526;BME280;13424;48.424;11.258;2023-03-14T03:36:04;93974.47;;;11.52;82.51
25526;BME280;13424;48.424;11.258;2023-03-14T03:42:05;93982.03;;;11.44;81.85
25526;BME280;13424;48.424;11.258;2023-03-14T03:44:31;93978.34;;;11.64;81.65
25526;BME280;13424;48.424;11.258;2023-03-14T03:47:30;93979.16;;;11.65;81.29
25526;BME280;13424;48.424;11.258;2023-03-14T03:49:56;93964.50;;;11.86;80.39
25526;BME280;13424;48.424;11.258;2023-03-14T03:52:22;93958.22;;;11.72;80.16
25526;BME280;13424;48.424;11.258;2023-03-14T03:54:48;93958.78;;;11.69;80.54
25526;BME280;13424;48.424;11.258;2023-03-14T03:57:14;93961.88;;;11.57;80.23
25526;BME280;13424;48.424;11.258;2023-03-14T03:59:40;93960.91;;;11.72;80.08
25526;BME280;13424;48.424;11.258;2023-03-14T04:02:07;93953.06;;;11.57;80.71
25526;BME280;13424;48.424;11.258;2023-03-14T04:04:33;93955.84;;;11.70;80.01
25526;BME280;13424;48.424;11.258;2023-03-14T04:07:01;93957.09;;;11.78;79.53
25526;BME280;13424;48.424;11.258;2023-03-14T04:09:27;93965.84;;;11.60;80.02
25526;BME280;13424;48.424;11.258;2023-03-14T04:12:18;93959.66;;;11.40;80.22
25526;BME280;13424;48.424;11.258;2023-03-14T04:14:58;93964.13;;;11.45;79.86
25526;BME280;13424;48.424;11.258;2023-03-14T04:17:23;93963.00;;;11.51;80.07
25526;BME280;13424;48.424;11.258;2023-03-14T04:19:49;93962.44;;;11.30;80.40
25526;BME280;13424;48.424;11.258;2023-03-14T04:22:17;93959.88;;;11.20;80.39
25526;BME280;13424;48.424;11.258;2023-03-14T04:24:46;93962.78;;;11.24;79.79
25526;BME280;13424;48.424;11.258;2023-03-14T04:27:12;93946.44;;;11.30;79.73
25526;BME280;13424;48.424;11.258;2023-03-14T04:29:41;93948.91;;;11.22;79.59
25526;BME280;13424;48.424;11.258;2023-03-14T04:32:07;93962.44;;;10.72;81.24
25526;BME280;13424;48.424;11.258;2023-03-14T04:34:34;93958.94;;;11.06;80.06
25526;BME280;13424;48.424;11.258;2023-03-14T04:37:00;93950.13;;;11.05;80.34
25526;BME280;13424;48.424;11.258;2023-03-14T04:39:33;93949.31;;;11.10;79.74
25526;BME280;13424;48.424;11.258;2023-03-14T04:42:07;93941.75;;;11.17;79.60
25526;BME280;13424;48.424;11.258;2023-03-14T04:44:35;93951.19;;;11.33;78.94
25526;BME280;13424;48.424;11.258;2023-03-14T04:47:01;93950.09;;;10.81;80.11
25526;BME280;13424;48.424;11.258;2023-03-14T04:49:27;93946.69;;;10.76;80.29
25526;BME280;13424;48.424;11.258;2023-03-14T04:51:56;93953.22;;;11.17;78.82
25526;BME280;13424;48.424;11.258;2023-03-14T04:54:24;93944.44;;;11.17;79.09
25526;BME280;13424;48.424;11.258;2023-03-14T04:56:55;93926.38;;;10.80;79.77
25526;BME280;13424;48.424;11.258;2023-03-14T04:59:21;93928.09;;;11.24;78.50
25526;BME280;13424;48.424;11.258;2023-03-14T05:01:48;93923.75;;;11.04;78.54
25526;BME280;13424;48.424;11.258;2023-03-14T05:04:38;93917.44;;;10.95;79.20
25526;BME280;13424;48.424;11.258;2023-03-14T05:07:29;93912.63;;;10.97;78.94
25526;BME280;13424;48.424;11.258;2023-03-14T05:10:06;93896.34;;;10.98;79.31
25526;BME280;13424;48.424;11.258;2023-03-14T05:12:51;93889.19;;;10.94;78.65
25526;BME280;13424;48.424;11.258;2023-03-14T05:15:37;93895.13;;;10.85;78.54
25526;BME280;13424;48.424;11.258;2023-03-14T05:18:23;93887.56;;;10.69;78.83
25526;BME280;13424;48.424;11.258;2023-03-14T05:20:59;93894.94;;;10.77;78.42
25526;BME280;13424;48.424;11.258;2023-03-14T05:23:43;93890.84;;;10.60;79.26
25526;BME280;13424;48.424;11.258;2023-03-14T05:26:32;93886.94;;;10.48;79.27
25526;BME280;13424;48.424;11.258;2023-03-14T05:29:16;93889.31;;;10.49;78.85
25526;BME280;13424;48.424;11.258;2023-03-14T05:32:15;93883.06;;;10.64;78.02
25526;BME280;13424;48.424;11.258;2023-03-14T05:35:01;93887.31;;;10.65;77.85
25526;BME280;13424;48.424;11.258;2023-03-14T05:37:45;93883.50;;;10.76;77.65
25526;BME280;13424;48.424;11.258;2023-03-14T05:40:17;93879.59;;;10.93;76.76
25526;BME280;13424;48.424;11.258;2023-03-14T05:43:03;93876.78;;;10.79;77.10
25526;BME280;13424;48.424;11.258;2023-03-14T05:45:48;93871.31;;;10.65;77.00
25526;BME280;13424;48.424;11.258;2023-03-14T05:48:30;93877.63;;;10.74;76.10
25526;BME280;13424;48.424;11.258;2023-03-14T05:51:15;93873.38;;;10.73;76.58
25526;BME280;13424;48.424;11.258;2023-03-14T05:53:55;93883.00;;;10.98;75.90
25526;BME280;13424;48.424;11.258;2023-03-14T05:56:40;93873.63;;;11.01;75.48
25526;BME280;13424;48.424;11.258;2023-03-14T05:59:15;93871.59;;;10.93;76.45
25526;BME280;13424;48.424;11.258;2023-03-14T06:01:56;93872.28;;;10.74;76.06
25526;BME280;13424;48.424;11.258;2023-03-14T06:08:01;93867.06;;;10.93;75.76
25526;BME280;13424;48.424;11.258;2023-03-14T06:10:29;93869.22;;;11.15;75.24
25526;BME280;13424;48.424;11.258;2023-03-14T06:12:56;93867.69;;;11.09;75.53
25526;BME280;13424;48.424;11.258;2023-03-14T06:15:22;93871.53;;;11.22;74.98
25526;BME280;13424;48.424;11.258;2023-03-14T06:17:50;93864.78;;;11.05;75.45
25526;BME280;13424;48.424;11.258;2023-03-14T06:20:17;93868.75;;;11.08;75.38
25526;BME280;13424;48.424;11.258;2023-03-14T06:22:43;93866.81;;;10.89;75.82
25526;BME280;13424;48.424;11.258;2023-03-14T06:25:11;93859.97;;;10.83;75.78
25526;BME280;13424;48.424;11.258;2023-03-14T06:27:37;93858.63;;;10.81;75.91
25526;BME280;13424;48.424;11.258;2023-03-14T06:30:04;93858.69;;;10.76;76.48
25526;BME280;13424;48.424;11.258;2023-03-14T06:36:00;93856.50;;;11.07;75.08
25526;BME280;13424;48.424;11.258;2023-03-14T06:38:26;93860.81;;;11.03;74.71
25526;BME280;13424;48.424;11.258;2023-03-14T06:40:55;93851.34;;;11.15;75.05
25526;BME280;13424;48.424;11.258;2023-03-14T06:43:34;93828.41;;;11.14;74.34
25526;BME280;13424;48.424;11.258;2023-03-14T06:46:00;93829.84;;;11.26;73.59
25526;BME280;13424;48.424;11.258;2023-03-14T06:48:26;93832.06;;;11.18;73.88
25526;BME280;13424;48.424;11.258;2023-03-14T06:51:37;93847.75;;;11.25;73.44
25526;BME280;13424;48.424;11.258;2023-03-14T06:54:05;93849.03;;;11.28;74.13
25526;BME280;13424;48.424;11.258;2023-03-14T06:56:31;93859.06;;;11.36;74.17
25526;BME280;13424;48.424;11.258;2023-03-14T06:58:58;93857.94;;;11.42;73.56
25526;BME280;13424;48.424;11.258;2023-03-14T07:01:30;93848.88;;;11.19;74.29
25526;BME280;13424;48.424;11.258;2023-03-14T07:04:04;93863.13;;;11.33;73.80
25526;BME280;13424;48.424;11.258;2023-03-14T07:06:31;93866.94;;;11.27;74.17
25526;BME280;13424;48.424;11.258;2023-03-14T07:08:57;93866.59;;;11.10;74.44
25526;BME280;13424;48.424;11.258;2023-03-14T07:11:23;93866.38;;;11.06;74.24
25526;BME280;13424;48.424;11.258;2023-03-14T07:13:49;93869.84;;;11.07;74.69
25526;BME280;13424;48.424;11.258;2023-03-14T07:16:15;93882.47;;;11.20;74.59
25526;BME280;13424;48.424;11.258;2023-03-14T07:18:40;93880.72;;;11.34;73.64
25526;BME280;13424;48.424;11.258;2023-03-14T07:21:18;93881.00;;;11.33;74.01
25526;BME280;13424;48.424;11.258;2023-03-14T07:23:44;93888.94;;;11.62;72.87
25526;BME280;13424;48.424;11.258;2023-03-14T07:26:12;93890.63;;;11.53;73.06
25526;BME280;13424;48.424;11.258;2023-03-14T07:32:56;93883.00;;;11.65;73.26
25526;BME280;13424;48.424;11.258;2023-03-14T07:35:33;93874.34;;;11.73;72.34
25526;BME280;13424;48.424;11.258;2023-03-14T07:37:59;93880.94;;;11.62;72.68
25526;BME280;13424;48.424;11.258;2023-03-14T07:40:33;93876.19;;;11.78;72.01
25526;BME280;13424;48.424;11.258;2023-03-14T07:47:29;93883.19;;;11.92;71.43
25526;BME280;13424;48.424;11.258;2023-03-14T07:49:55;93888.09;;;12.23;70.90
25526;BME280;13424;48.424;11.258;2023-03-14T07:52:21;93882.47;;;12.06;71.45
25526;BME280;13424;48.424;11.258;2023-03-14T07:58:24;93894.88;;;12.34;69.75
25526;BME280;13424;48.424;11.258;2023-03-14T08:00:51;93888.63;;;12.57;69.24
25526;BME280;13424;48.424;11.258;2023-03-14T08:03:51;93882.16;;;12.91;69.19
25526;BME280;13424;48.424;11.258;2023-03-14T08:06:17;93878.53;;;12.68;69.38
25526;BME280;13424;48.424;11.258;2023-03-14T08:08:43;93892.94;;;12.86;69.16
25526;BME280;13424;48.424;11.258;2023-03-14T08:11:08;93888.66;;;12.71;68.47
25526;BME280;13424;48.424;11.258;2023-03-14T08:18:19;93885.59;;;12.78;68.67
25526;BME280;13424;48.424;11.258;2023-03-14T08:20:44;93894.03;;;12.85;67.82
25526;BME280;13424;48.424;11.258;2023-03-14T08:23:10;93894.56;;;13.01;68.61
25526;BME280;13424;48.424;11.258;2023-03-14T08:25:38;93901.31;;;12.98;68.22
25526;BME280;13424;48.424;11.258;2023-03-14T08:28:04;93884.63;;;13.20;68.06
25526;BME280;13424;48.424;11.258;2023-03-14T08:30:35;93889.19;;;13.20;67.90
25526;BME280;13424;48.424;11.258;2023-03-14T08:33:01;93894.91;;;13.27;66.96
25526;BME280;13424;48.424;11.258;2023-03-14T08:35:27;93892.22;;;13.27;67.75
25526;BME280;13424;48.424;11.258;2023-03-14T08:37:53;93893.13;;;13.50;67.05
25526;BME280;13424;48.424;11.258;2023-03-14T08:40:19;93894.09;;;13.12;67.29
25526;BME280;13424;48.424;11.258;2023-03-14T08:42:45;93886.50;;;12.87;67.68
25526;BME280;13424;48.424;11.258;2023-03-14T08:45:13;93889.50;;;12.99;67.37
25526;BME280;13424;48.424;11.258;2023-03-14T08:47:40;93880.94;;;13.30;66.60
25526;BME280;13424;48.424;11.258;2023-03-14T08:50:07;93890.75;;;13.21;66.89
25526;BME280;13424;48.424;11.258;2023-03-14T08:52:33;93898.06;;;13.43;66.67
25526;BME280;13424;48.424;11.258;2023-03-14T08:54:58;93889.13;;;13.06;66.64
25526;BME280;13424;48.424;11.258;2023-03-14T08:57:25;93886.16;;;13.07;67.02
25526;BME280;13424;48.424;11.258;2023-03-14T09:00:21;93898.78;;;13.62;66.05
25526;BME280;13424;48.424;11.258;2023-03-14T09:02:47;93893.31;;;13.67;64.96
25526;BME280;13424;48.424;11.258;2023-03-14T09:05:13;93890.94;;;13.65;65.75
25526;BME280;13424;48.424;11.258;2023-03-14T09:07:48;93886.94;;;13.90;64.96
25526;BME280;13424;48.424;11.258;2023-03-14T09:10:13;93883.44;;;13.90;64.52
25526;BME280;13424;48.424;11.258;2023-03-14T09:12:39;93880.34;;;13.96;64.49
25526;BME280;13424;48.424;11.258;2023-03-14T09:15:06;93885.88;;;14.50;63.27
25526;BME280;13424;48.424;11.258;2023-03-14T09:17:32;93883.28;;;14.67;63.80
25526;BME280;13424;48.424;11.258;2023-03-14T09:19:58;93889.97;;;15.01;63.41
25526;BME280;13424;48.424;11.258;2023-03-14T09:22:24;93891.31;;;14.90;63.58
25526;BME280;13424;48.424;11.258;2023-03-14T09:24:50;93880.59;;;14.90;61.97
25526;BME280;13424;48.424;11.258;2023-03-14T09:30:56;93884.91;;;14.46;62.26
25526;BME280;13424;48.424;11.258;2023-03-14T09:33:22;93879.34;;;14.29;62.66
25526;BME280;13424;48.424;11.258;2023-03-14T09:35:47;93866.13;;;14.46;62.80
25526;BME280;13424;48.424;11.258;2023-03-14T09:38:52;93875.59;;;14.74;63.30
25526;BME280;13424;48.424;11.258;2023-03-14T09:41:27;93886.34;;;14.74;62.77
25526;BME280;13424;48.424;11.258;2023-03-14T09:44:21;93880.84;;;14.35;61.61
25526;BME280;13424;48.424;11.258;2023-03-14T09:46:53;93882.25;;;14.77;62.72
25526;BME280;13424;48.424;11.258;2023-03-14T09:49:25;93882.59;;;14.84;61.44
25526;BME280;13424;48.424;11.258;2023-03-14T09:51:55;93879.56;;;15.08;60.35
25526;BME280;13424;48.424;11.258;2023-03-14T09:54:36;93872.28;;;15.40;60.71
25526;BME280;13424;48.424;11.258;2023-03-14T09:57:05;93854.19;;;15.62;60.54
25526;BME280;13424;48.424;11.258;2023-03-14T09:59:32;93867.88;;;15.44;61.05
25526;BME280;13424;48.424;11.258;2023-03-14T10:02:20;93863.25;;;15.75;59.61
25526;BME280;13424;48.424;11.258;2023-03-14T10:04:48;93864.09;;;15.45;59.66
25526;BME280;13424;48.424;11.258;2023-03-14T10:07:31;93855.41;;;15.08;59.26
25526;BME280;13424;48.424;11.258;2023-03-14T10:09:58;93867.22;;;14.98;60.52
25526;BME280;13424;48.424;11.258;2023-03-14T10:12:35;93860.78;;;14.77;61.16
25526;BME280;13424;48.424;11.258;2023-03-14T10:15:11;93872.13;;;14.74;60.51
25526;BME280;13424;48.424;11.258;2023-03-14T10:17:48;93865.03;;;14.69;58.52
25526;BME280;13424;48.424;11.258;2023-03-14T10:20:38;93860.78;;;15.08;60.12
25526;BME280;13424;48.424;11.258;2023-03-14T10:23:18;93872.22;;;15.22;60.78
25526;BME280;13424;48.424;11.258;2023-03-14T10:28:48;93855.22;;;14.96;58.78
25526;BME280;13424;48.424;11.258;2023-03-14T10:31:16;93862.72;;;14.54;58.42
25526;BME280;13424;48.424;11.258;2023-03-14T10:33:43;93875.56;;;14.66;59.37
25526;BME280;13424;48.424;11.258;2023-03-14T10:36:29;93858.50;;;14.93;58.53
25526;BME280;13424;48.424;11.258;2023-03-14T10:39:25;93866.50;;;14.84;59.24
25526;BME280;13424;48.424;11.258;2023-03-14T10:41:55;93870.47;;;14.87;59.05
25526;BME280;13424;48.424;11.258;2023-03-14T10:44:27;93865.25;;;14.59;58.70
25526;BME280;13424;48.424;11.258;2023-03-14T10:47:00;93858.09;;;14.46;59.40
25526;BME280;13424;48.424;11.258;2023-03-14T10:49:34;93861.03;;;14.67;59.36
25526;BME280;13424;48.424;11.258;2023-03-14T10:56:20;93860.66;;;15.13;59.76
25526;BME280;13424;48.424;11.258;2023-03-14T10:58:58;93856.47;;;14.98;59.67
25526;BME280;13424;48.424;11.258;2023-03-14T11:01:48;93853.00;;;14.98;58.68
25526;BME280;13424;48.424;11.258;2023-03-14T11:07:42;93859.81;;;15.04;59.33
25526;BME280;13424;48.424;11.258;2023-03-14T11:10:37;93861.75;;;14.81;59.95
25526;BME280;13424;48.424;11.258;2023-03-14T11:16:56;93851.91;;;15.39;58.91
25526;BME280;13424;48.424;11.258;2023-03-14T11:19:49;93848.38;;;15.78;57.59
25526;BME280;13424;48.424;11.258;2023-03-14T11:22:37;93850.78;;;15.88;58.48
25526;BME280;13424;48.424;11.258;2023-03-14T11:28:40;93837.50;;;16.09;57.98
25526;BME280;13424;48.424;11.258;2023-03-14T11:31:16;93836.72;;;15.82;58.98
25526;BME280;13424;48.424;11.258;2023-03-14T11:34:34;93840.00;;;15.71;57.37
25526;BME280;13424;48.424;11.258;2023-03-14T11:39:34;93828.16;;;14.84;58.62
25526;BME280;13424;48.424;11.258;2023-03-14T11:42:03;93844.59;;;14.91;59.21
25526;BME280;13424;48.424;11.258;2023-03-14T11:44:39;93844.38;;;15.58;58.01
25526;BME280;13424;48.424;11.258;2023-03-14T11:47:28;93837.84;;;15.33;57.98
25526;BME280;13424;48.424;11.258;2023-03-14T11:52:41;93829.94;;;14.66;58.07
25526;BME280;13424;48.424;11.258;2023-03-14T11:55:26;93826.63;;;14.69;58.60
25526;BME280;13424;48.424;11.258;2023-03-14T11:57:58;93825.50;;;14.61;58.67
25526;BME280;13424;48.424;11.258;2023-03-14T12:00:28;93835.78;;;14.99;59.09
25526;BME280;13424;48.424;11.258;2023-03-14T12:09:35;93832.81;;;14.69;59.78
25526;BME280;13424;48.424;11.258;2023-03-14T12:12:03;93834.50;;;14.20;59.54
25526;BME280;13424;48.424;11.258;2023-03-14T12:14:34;93823.19;;;14.01;59.96
25526;BME280;13424;48.424;11.258;2023-03-14T12:17:21;93822.19;;;13.97;60.34
25526;BME280;13424;48.424;11.258;2023-03-14T12:20:21;93835.44;;;14.16;59.75
25526;BME280;13424;48.424;11.258;2023-03-14T12:22:57;93825.88;;;14.23;59.78
25526;BME280;13424;48.424;11.258;2023-03-14T12:25:29;93833.06;;;14.59;58.88
25526;BME280;13424;48.424;11.258;2023-03-14T12:30:51;93834.28;;;14.53;59.55
25526;BME280;13424;48.424;11.258;2023-03-14T12:35:51;93826.44;;;14.57;59.20
25526;BME280;13424;48.424;11.258;2023-03-14T12:38:28;93835.31;;;14.66;59.18
25526;BME280;13424;48.424;11.258;2023-03-14T12:41:48;93827.38;;;14.61;59.01
25526;BME280;13424;48.424;11.258;2023-03-14T12:46:59;93835.44;;;14.61;58.59
25526;BME280;13424;48.424;11.258;2023-03-14T12:49:32;93828.19;;;14.39;59.86
25526;BME280;13424;48.424;11.258;2023-03-14T12:52:20;93830.97;;;14.78;60.05
25526;BME280;13424;48.424;11.258;2023-03-14T12:55:10;93820.38;;;14.06;60.16
25526;BME280;13424;48.424;11.258;2023-03-14T12:58:12;93835.13;;;14.40;59.90
25526;BME280;13424;48.424;11.258;2023-03-14T13:00:42;93830.94;;;13.89;62.11
25526;BME280;13424;48.424;11.258;2023-03-14T13:03:20;93836.00;;;13.40;64.36
25526;BME280;13424;48.424;11.258;2023-03-14T13:05:59;93844.28;;;13.80;65.21
25526;BME280;13424;48.424;11.258;2023-03-14T13:08:35;93849.06;;;13.01;66.87
25526;BME280;13424;48.424;11.258;2023-03-14T13:11:29;93854.22;;;12.97;66.81
25526;BME280;13424;48.424;11.258;2023-03-14T13:13:59;93856.22;;;13.05;66.32
25526;BME280;13424;48.424;11.258;2023-03-14T13:16:24;93858.91;;;13.05;66.32
25526;BME280;13424;48.424;11.258;2023-03-14T13:19:18;93864.53;;;13.18;66.08
25526;BME280;13424;48.424;11.258;2023-03-14T13:21:45;93866.94;;;13.05;66.24
25526;BME280;13424;48.424;11.258;2023-03-14T13:24:26;93868.25;;;12.75;65.79
25526;BME280;13424;48.424;11.258;2023-03-14T13:26:55;93870.44;;;12.87;66.71
25526;BME280;13424;48.424;11.258;2023-03-14T13:31:53;93881.97;;;12.88;68.50
25526;BME280;13424;48.424;11.258;2023-03-14T13:34:20;93887.72;;;12.48;69.07
25526;BME280;13424;48.424;11.258;2023-03-14T13:36:46;93903.00;;;12.62;69.01
25526;BME280;13424;48.424;11.258;2023-03-14T13:39:21;93892.09;;;12.58;69.78
25526;BME280;13424;48.424;11.258;2023-03-14T13:41:51;93912.94;;;12.42;70.41
25526;BME280;13424;48.424;11.258;2023-03-14T13:44:31;93914.69;;;11.95;70.03
25526;BME280;13424;48.424;11.258;2023-03-14T13:47:00;93932.53;;;11.76;73.18
25526;BME280;13424;48.424;11.258;2023-03-14T13:49:28;93933.28;;;11.58;73.91
25526;BME280;13424;48.424;11.258;2023-03-14T13:51:54;93942.38;;;11.57;73.61
25526;BME280;13424;48.424;11.258;2023-03-14T13:54:21;93954.03;;;11.66;75.56
25526;BME280;13424;48.424;11.258;2023-03-14T13:56:47;93960.66;;;11.68;76.07
25526;BME280;13424;48.424;11.258;2023-03-14T13:59:28;93951.53;;;11.51;76.44
25526;BME280;13424;48.424;11.258;2023-03-14T14:05:33;93965.81;;;11.12;77.34
25526;BME280;13424;48.424;11.258;2023-03-14T14:08:03;93985.84;;;11.09;78.28
25526;BME280;13424;48.424;11.258;2023-03-14T14:10:29;93986.38;;;10.82;78.80
25526;BME280;13424;48.424;11.258;2023-03-14T14:13:02;93991.72;;;10.82;78.97
25526;BME280;13424;48.424;11.258;2023-03-14T14:15:31;94008.28;;;10.74;79.14
25526;BME280;13424;48.424;11.258;2023-03-14T14:21:23;94011.06;;;10.15;81.54
25526;BME280;13424;48.424;11.258;2023-03-14T14:23:49;94014.50;;;10.20;81.49
25526;BME280;13424;48.424;11.258;2023-03-14T14:30:27;94051.75;;;10.30;82.55
25526;BME280;13424;48.424;11.258;2023-03-14T14:32:51;94014.00;;;10.08;82.25
25526;BME280;13424;48.424;11.258;2023-03-14T14:35:32;94034.97;;;9.65;82.02
25526;BME280;13424;48.424;11.258;2023-03-14T14:37:58;94060.97;;;9.89;82.39
25526;BME280;13424;48.424;11.258;2023-03-14T14:40:27;94071.91;;;9.82;82.60
25526;BME280;13424;48.424;11.258;2023-03-14T14:42:54;94077.00;;;9.68;83.41
25526;BME280;13424;48.424;11.258;2023-03-14T14:45:22;94094.59;;;9.59;83.86
25526;BME280;13424;48.424;11.258;2023-03-14T14:50:36;94110.56;;;9.54;85.14
25526;BME280;13424;48.424;11.258;2023-03-14T14:53:21;94121.25;;;9.03;87.17
25526;BME280;13424;48.424;11.258;2023-03-14T14:55:51;94110.06;;;9.32;86.33